This is the latest recevied weather packets stored in our database for station/object SAVIL. If no packets are shown the sender has not sent any weather packets the latest 10 day(s).
| Time | Temp. | Humidity | Pressure | Rain* | Wind** | Luminosity | Snow |
|---|---|---|---|---|---|---|---|
| 1777546009 | 7.78° C | 75% | 1017.8 hPa | 0 mm | - | - | - |
| 1777543609 | 7.22° C | 77% | 1018 hPa | 0 mm | - | - | - |
| 1777542410 | 6.11° C | 81% | 1018.2 hPa | 0 mm | - | - | - |
| 1777541209 | 5° C | 84% | 1018.3 hPa | 0 mm | - | - | - |
| 1777540009 | 5° C | 83% | 1018.5 hPa | 0 mm | - | - | - |
| 1777538809 | 5° C | 82% | 1018.3 hPa | 0 mm | - | - | - |
| 1777537609 | 5° C | 82% | 1018 hPa | 0 mm | - | - | - |
| 1777536409 | 4.44° C | 81% | 1018.1 hPa | 0 mm | - | - | - |
| 1777535209 | 4.44° C | 79% | 1018.2 hPa | 0 mm | - | - | - |
| 1777534009 | 4.44° C | 77% | 1017.9 hPa | 0 mm | - | - | - |
| 1777532809 | 4.44° C | 75% | 1017.9 hPa | 0 mm | - | - | - |
| 1777531609 | 3.89° C | 77% | 1018 hPa | 0 mm | - | - | - |
| 1777530408 | 3.33° C | 80% | 1018.1 hPa | 0 mm | - | - | - |
| 1777529208 | 3.33° C | 77% | 1018.1 hPa | 0 mm | - | - | - |
| 1777528008 | 2.78° C | 77% | 1018.1 hPa | 0 mm | - | - | - |
| 1777526808 | 2.78° C | 76% | 1018.1 hPa | 0 mm | - | - | - |
| 1777525608 | 2.78° C | 75% | 1018.1 hPa | 0 mm | - | - | - |
| 1777524408 | 2.78° C | 72% | 1018.2 hPa | 0 mm | - | - | - |
| 1777523208 | 2.78° C | 72% | 1018.3 hPa | 0 mm | - | - | - |
| 1777522008 | 2.22° C | 70% | 1018.3 hPa | 0 mm | - | - | - |
| 1777520808 | 2.22° C | 72% | 1018.5 hPa | 0 mm | - | - | - |
| 1777519608 | 2.22° C | 72% | 1018.6 hPa | 0 mm | - | - | - |
| 1777518408 | 1.67° C | 71% | 1018.7 hPa | 0 mm | - | - | - |
| 1777517208 | 2.22° C | 69% | 1018.8 hPa | 0 mm | - | - | - |
| 1777516008 | 2.22° C | 68% | 1018.9 hPa | 0 mm | - | - | - |
* Rain latest hour (hover to see other rain measurements)
** Current wind speed in m/s (hover to see current wind gust speed)